This is the latest recevied weather packets stored in our database for station/object KB1ZFK. If no packets are shown the sender has not sent any weather packets the latest 1 day(s).
| Time | Temp. | Humidity | Pressure | Rain* | Wind** | Luminosity | Snow |
|---|---|---|---|---|---|---|---|
| 1778036451 | 18.89° C | 63% | 1008.6 hPa | 0 mm | - | 0 W/m² | - |
| 1778035542 | 18.89° C | 63% | 1008.7 hPa | 0 mm | - | 0 W/m² | - |
| 1778034632 | 18.89° C | 65% | 1008.5 hPa | 0 mm | - | 0 W/m² | - |
| 1778034329 | 18.89° C | 65% | 1008.7 hPa | 0 mm | - | 0 W/m² | - |
| 1778034027 | 18.89° C | 66% | 1008.6 hPa | 0 mm | - | 0 W/m² | - |
| 1778033724 | 18.89° C | 66% | 1008.5 hPa | 0 mm | - | 0 W/m² | - |
| 1778033421 | 18.89° C | 67% | 1008.5 hPa | 0 mm | - | 0 W/m² | - |
| 1778033119 | 18.33° C | 68% | 1008.6 hPa | 0 mm | - | 0 W/m² | - |
| 1778032210 | 18.89° C | 68% | 1008.5 hPa | 0 mm | - | 0 W/m² | - |
| 1778031908 | 19.44° C | 68% | 1008.7 hPa | 0 mm | - | 0 W/m² | - |
| 1778031301 | 19.44° C | 67% | 1008.7 hPa | 0 mm | - | 0 W/m² | - |
| 1778030997 | 19.44° C | 68% | 1008.9 hPa | 0 mm | - | 0 W/m² | - |
| 1778030391 | 19.44° C | 69% | 1008.7 hPa | 0 mm | - | 0 W/m² | - |
| 1778030088 | 19.44° C | 69% | 1008.6 hPa | 0 mm | - | 0 W/m² | - |
| 1778029784 | 19.44° C | 69% | 1008.4 hPa | 0 mm | - | 0 W/m² | - |
| 1778029484 | 19.44° C | 68% | 1008.6 hPa | 0 mm | - | 0 W/m² | - |
| 1778028878 | 20° C | 68% | 1008.5 hPa | 0 mm | - | 0 W/m² | - |
| 1778028572 | 20° C | 67% | 1008.3 hPa | 0 mm | - | 0 W/m² | - |
| 1778027360 | 21.11° C | 60% | 1008.3 hPa | 0 mm | - | 0 W/m² | - |
| 1778027056 | 21.11° C | 59% | 1008.1 hPa | 0 mm | - | 0 W/m² | - |
| 1778026449 | 22.22° C | 53% | 1007.8 hPa | 0 mm | - | 0 W/m² | - |
| 1778026146 | 23.33° C | 48% | 1007.5 hPa | 0 mm | - | 0 W/m² | - |
| 1778022816 | 23.89° C | 45% | 1006 hPa | 0 mm | - | 16 W/m² | - |
| 1778022514 | 23.89° C | 45% | 1005.7 hPa | 0 mm | - | 19 W/m² | - |
| 1778022211 | 23.89° C | 45% | 1005.6 hPa | 0 mm | - | 18 W/m² | - |
* Rain latest hour (hover to see other rain measurements)
** Current wind speed in m/s (hover to see current wind gust speed)